Back to top

Worland, WY weather

Worland Municipal Airport, Worland, WY: 5/26/2019 14:53
Visibility10 statute milesclear sky
View 7-Day Forecast
Area Summary
Sky/CloudsSky Clear
Weather [last 24 hours]None
Pressure29.82 in.Hg (1010 hPa)
3-hour Pressure Tendency0.06791 in.Hg (2.3 hPa) Steady or increasing, then decreasing; or decreasing then decreasing more rapidly
Dew Point39.9 °F (4.4 °C)
Relative Humidity31.3 %
Temperature72 °F (22.2 °C)red thermometer
Reading TimeMinimum to Maximum Temperature
6-hr ending 5/26@11:5343 °F to 64 °F (6.1 °C to 17.8 °C)
6-hr ending 5/26@05:5341 °F to 52 °F (5 °C to 11.1 °C)
6-hr ending 5/25@23:5348.9 °F to 68 °F (9.4 °C to 20 °C)
6-hr ending 5/25@17:5361 °F to 71.1 °F (16.1 °C to 21.7 °C)
24-hr ending 5/26@00:5335.1 °F to 71.1 °F (1.7 °C to 21.7 °C)
Wind3.45 MPH (3 KT) green arrow with no specific direction
Wind FromVariable (VRB Degrees)
Twilight Begins04:59Sunshine Yesterday
Sunrise05:34N/A
Sunset20:45
Twilight Ends21:20
METARKWRL 262053Z AUTO VRB03KT 10SM CLR 22/04 A2982 RMK AO2 SLP073 T02220044 58023
Tags: